sensor_id;sensor_type;location;lat;lon;timestamp;P1;durP1;ratioP1;P2;durP2;ratioP2
77278;SDS011;66332;50.436;15.378;2023-03-01T05:04:49;20.60;;;9.65;;
77278;SDS011;66332;50.436;15.378;2023-03-01T05:09:30;21.52;;;9.00;;
77278;SDS011;66332;50.436;15.378;2023-03-01T05:14:11;21.63;;;9.23;;
77278;SDS011;66332;50.436;15.378;2023-03-01T05:18:52;22.25;;;9.20;;
77278;SDS011;66332;50.436;15.378;2023-03-01T05:23:33;19.30;;;8.40;;
77278;SDS011;66332;50.436;15.378;2023-03-01T05:28:14;19.90;;;8.77;;
77278;SDS011;66332;50.436;15.378;2023-03-01T05:32:55;22.50;;;10.00;;
77278;SDS011;66332;50.436;15.378;2023-03-01T05:37:36;21.80;;;9.20;;
77278;SDS011;66332;50.436;15.378;2023-03-01T05:42:18;22.95;;;10.57;;
77278;SDS011;66332;50.436;15.378;2023-03-01T05:46:59;23.92;;;10.48;;
77278;SDS011;66332;50.436;15.378;2023-03-01T05:51:40;23.95;;;10.50;;
77278;SDS011;66332;50.436;15.378;2023-03-01T05:56:22;21.38;;;9.30;;
77278;SDS011;66332;50.436;15.378;2023-03-01T06:01:03;23.45;;;9.77;;
77278;SDS011;66332;50.436;15.378;2023-03-01T06:05:44;24.90;;;10.13;;
77278;SDS011;66332;50.436;15.378;2023-03-01T06:10:25;23.40;;;9.65;;
77278;SDS011;66332;50.436;15.378;2023-03-01T06:15:06;22.00;;;10.18;;
77278;SDS011;66332;50.436;15.378;2023-03-01T06:19:50;20.83;;;9.05;;
77278;SDS011;66332;50.436;15.378;2023-03-01T06:24:31;21.80;;;9.80;;
77278;SDS011;66332;50.436;15.378;2023-03-01T06:29:13;24.67;;;10.88;;
77278;SDS011;66332;50.436;15.378;2023-03-01T06:33:55;22.38;;;10.32;;
77278;SDS011;66332;50.436;15.378;2023-03-01T06:38:36;20.52;;;9.63;;
77278;SDS011;66332;50.436;15.378;2023-03-01T06:43:18;22.42;;;11.40;;
77278;SDS011;66332;50.436;15.378;2023-03-01T06:48:04;23.55;;;10.05;;
77278;SDS011;66332;50.436;15.378;2023-03-01T06:52:46;24.30;;;9.88;;
77278;SDS011;66332;50.436;15.378;2023-03-01T06:57:29;19.48;;;9.57;;
77278;SDS011;66332;50.436;15.378;2023-03-01T07:02:10;23.27;;;10.57;;
77278;SDS011;66332;50.436;15.378;2023-03-01T07:06:52;28.77;;;11.23;;
77278;SDS011;66332;50.436;15.378;2023-03-01T07:11:35;25.73;;;10.20;;
77278;SDS011;66332;50.436;15.378;2023-03-01T07:16:16;23.45;;;9.48;;
77278;SDS011;66332;50.436;15.378;2023-03-01T07:20:58;22.45;;;10.52;;
77278;SDS011;66332;50.436;15.378;2023-03-01T07:25:39;19.98;;;9.05;;
77278;SDS011;66332;50.436;15.378;2023-03-01T07:30:21;16.67;;;7.53;;
77278;SDS011;66332;50.436;15.378;2023-03-01T07:35:02;19.80;;;9.10;;
77278;SDS011;66332;50.436;15.378;2023-03-01T07:39:43;21.52;;;9.32;;
77278;SDS011;66332;50.436;15.378;2023-03-01T07:44:24;21.63;;;9.43;;
77278;SDS011;66332;50.436;15.378;2023-03-01T07:49:05;18.67;;;9.18;;
77278;SDS011;66332;50.436;15.378;2023-03-01T07:53:46;22.90;;;8.77;;
77278;SDS011;66332;50.436;15.378;2023-03-01T07:58:28;18.65;;;8.20;;
77278;SDS011;66332;50.436;15.378;2023-03-01T08:03:12;18.23;;;8.63;;
77278;SDS011;66332;50.436;15.378;2023-03-01T08:07:53;21.35;;;9.23;;
77278;SDS011;66332;50.436;15.378;2023-03-01T08:12:35;15.85;;;7.25;;
77278;SDS011;66332;50.436;15.378;2023-03-01T08:17:16;18.20;;;8.57;;
77278;SDS011;66332;50.436;15.378;2023-03-01T08:21:57;16.75;;;7.80;;
77278;SDS011;66332;50.436;15.378;2023-03-01T08:26:41;19.92;;;8.55;;
77278;SDS011;66332;50.436;15.378;2023-03-01T08:31:26;17.67;;;8.77;;
77278;SDS011;66332;50.436;15.378;2023-03-01T08:36:13;17.23;;;8.15;;
77278;SDS011;66332;50.436;15.378;2023-03-01T08:40:55;23.38;;;8.93;;
77278;SDS011;66332;50.436;15.378;2023-03-01T08:45:40;18.98;;;8.65;;
77278;SDS011;66332;50.436;15.378;2023-03-01T08:50:21;22.25;;;8.82;;
77278;SDS011;66332;50.436;15.378;2023-03-01T08:55:05;19.35;;;8.90;;
77278;SDS011;66332;50.436;15.378;2023-03-01T08:59:49;18.70;;;8.75;;
77278;SDS011;66332;50.436;15.378;2023-03-01T09:04:30;20.83;;;9.65;;
77278;SDS011;66332;50.436;15.378;2023-03-01T09:09:13;18.88;;;9.00;;
77278;SDS011;66332;50.436;15.378;2023-03-01T09:13:56;18.35;;;9.20;;
77278;SDS011;66332;50.436;15.378;2023-03-01T09:18:37;17.50;;;8.38;;
77278;SDS011;66332;50.436;15.378;2023-03-01T09:23:19;22.52;;;9.18;;
77278;SDS011;66332;50.436;15.378;2023-03-01T09:28:00;17.65;;;9.07;;
77278;SDS011;66332;50.436;15.378;2023-03-01T09:32:41;20.02;;;8.68;;
77278;SDS011;66332;50.436;15.378;2023-03-01T09:37:23;19.48;;;8.57;;
77278;SDS011;66332;50.436;15.378;2023-03-01T09:42:11;20.23;;;9.15;;
77278;SDS011;66332;50.436;15.378;2023-03-01T09:46:53;18.90;;;9.40;;
77278;SDS011;66332;50.436;15.378;2023-03-01T09:51:35;17.10;;;9.27;;
77278;SDS011;66332;50.436;15.378;2023-03-01T09:56:19;18.48;;;9.02;;
77278;SDS011;66332;50.436;15.378;2023-03-01T10:10:45;18.48;;;9.55;;
77278;SDS011;66332;50.436;15.378;2023-03-01T10:15:33;20.63;;;9.20;;
77278;SDS011;66332;50.436;15.378;2023-03-01T10:20:24;19.13;;;8.90;;
77278;SDS011;66332;50.436;15.378;2023-03-01T10:25:08;18.73;;;9.73;;
77278;SDS011;66332;50.436;15.378;2023-03-01T10:34:35;19.75;;;9.93;;
77278;SDS011;66332;50.436;15.378;2023-03-01T10:39:17;21.70;;;10.25;;
77278;SDS011;66332;50.436;15.378;2023-03-01T10:44:00;20.55;;;9.90;;
77278;SDS011;66332;50.436;15.378;2023-03-01T10:48:41;18.98;;;9.82;;
77278;SDS011;66332;50.436;15.378;2023-03-01T10:58:21;24.38;;;11.23;;
77278;SDS011;66332;50.436;15.378;2023-03-01T11:12:37;24.75;;;12.10;;
77278;SDS011;66332;50.436;15.378;2023-03-01T11:17:23;23.73;;;11.27;;
77278;SDS011;66332;50.436;15.378;2023-03-01T11:27:05;19.75;;;10.57;;
77278;SDS011;66332;50.436;15.378;2023-03-01T11:32:11;20.48;;;10.77;;
77278;SDS011;66332;50.436;15.378;2023-03-01T11:37:12;18.27;;;10.13;;
77278;SDS011;66332;50.436;15.378;2023-03-01T11:48:15;20.60;;;10.77;;
77278;SDS011;66332;50.436;15.378;2023-03-01T11:53:28;24.55;;;10.90;;
77278;SDS011;66332;50.436;15.378;2023-03-01T12:04:17;21.52;;;11.05;;
77278;SDS011;66332;50.436;15.378;2023-03-01T12:14:18;20.02;;;9.35;;
77278;SDS011;66332;50.436;15.378;2023-03-01T12:34:25;18.73;;;9.70;;
77278;SDS011;66332;50.436;15.378;2023-03-01T12:44:38;19.15;;;10.00;;
77278;SDS011;66332;50.436;15.378;2023-03-01T12:54:15;18.85;;;9.77;;
77278;SDS011;66332;50.436;15.378;2023-03-01T13:04:21;20.63;;;10.40;;
77278;SDS011;66332;50.436;15.378;2023-03-01T13:19:12;21.08;;;10.63;;
77278;SDS011;66332;50.436;15.378;2023-03-01T13:23:56;21.25;;;9.48;;
77278;SDS011;66332;50.436;15.378;2023-03-01T13:53:12;16.77;;;9.55;;
77278;SDS011;66332;50.436;15.378;2023-03-01T14:07:58;18.05;;;8.68;;
77278;SDS011;66332;50.436;15.378;2023-03-01T14:18:22;17.08;;;9.00;;
77278;SDS011;66332;50.436;15.378;2023-03-01T14:32:51;16.67;;;8.82;;
77278;SDS011;66332;50.436;15.378;2023-03-01T14:37:34;17.20;;;9.48;;
77278;SDS011;66332;50.436;15.378;2023-03-01T14:42:15;18.50;;;9.30;;
77278;SDS011;66332;50.436;15.378;2023-03-01T14:47:16;17.95;;;9.32;;
77278;SDS011;66332;50.436;15.378;2023-03-01T14:52:31;18.90;;;8.93;;
77278;SDS011;66332;50.436;15.378;2023-03-01T14:57:28;17.98;;;9.07;;
77278;SDS011;66332;50.436;15.378;2023-03-01T15:02:24;15.15;;;8.15;;
77278;SDS011;66332;50.436;15.378;2023-03-01T15:07:09;17.02;;;8.73;;
77278;SDS011;66332;50.436;15.378;2023-03-01T15:11:56;16.58;;;8.88;;
77278;SDS011;66332;50.436;15.378;2023-03-01T15:16:38;18.38;;;8.70;;
77278;SDS011;66332;50.436;15.378;2023-03-01T15:21:22;17.85;;;9.07;;
77278;SDS011;66332;50.436;15.378;2023-03-01T15:26:18;19.48;;;8.05;;
77278;SDS011;66332;50.436;15.378;2023-03-01T15:41:31;24.10;;;13.13;;
77278;SDS011;66332;50.436;15.378;2023-03-01T15:46:20;23.63;;;12.82;;
77278;SDS011;66332;50.436;15.378;2023-03-01T15:51:22;24.85;;;13.82;;
77278;SDS011;66332;50.436;15.378;2023-03-01T15:56:09;23.15;;;12.82;;
77278;SDS011;66332;50.436;15.378;2023-03-01T16:00:50;35.75;;;19.15;;
77278;SDS011;66332;50.436;15.378;2023-03-01T16:05:37;24.73;;;12.63;;
77278;SDS011;66332;50.436;15.378;2023-03-01T16:10:19;23.83;;;12.10;;
77278;SDS011;66332;50.436;15.378;2023-03-01T16:15:04;24.83;;;12.25;;
77278;SDS011;66332;50.436;15.378;2023-03-01T16:19:55;22.23;;;11.38;;
77278;SDS011;66332;50.436;15.378;2023-03-01T16:24:45;24.83;;;11.35;;
77278;SDS011;66332;50.436;15.378;2023-03-01T16:29:26;26.42;;;12.35;;
77278;SDS011;66332;50.436;15.378;2023-03-01T16:34:09;26.77;;;11.60;;
77278;SDS011;66332;50.436;15.378;2023-03-01T16:38:57;27.83;;;12.40;;
77278;SDS011;66332;50.436;15.378;2023-03-01T16:43:41;25.27;;;12.07;;
77278;SDS011;66332;50.436;15.378;2023-03-01T16:48:22;26.55;;;11.85;;
77278;SDS011;66332;50.436;15.378;2023-03-01T16:53:03;27.15;;;12.10;;
77278;SDS011;66332;50.436;15.378;2023-03-01T16:57:44;25.85;;;11.80;;
77278;SDS011;66332;50.436;15.378;2023-03-01T17:02:24;21.38;;;10.70;;
77278;SDS011;66332;50.436;15.378;2023-03-01T17:07:06;22.23;;;10.00;;
77278;SDS011;66332;50.436;15.378;2023-03-01T17:11:50;28.75;;;11.95;;
77278;SDS011;66332;50.436;15.378;2023-03-01T17:16:34;26.83;;;13.70;;
77278;SDS011;66332;50.436;15.378;2023-03-01T17:21:16;28.23;;;12.55;;
77278;SDS011;66332;50.436;15.378;2023-03-01T17:25:57;26.90;;;12.82;;
77278;SDS011;66332;50.436;15.378;2023-03-01T17:30:40;27.10;;;13.07;;
77278;SDS011;66332;50.436;15.378;2023-03-01T17:35:23;33.30;;;15.82;;
77278;SDS011;66332;50.436;15.378;2023-03-01T17:40:04;31.30;;;13.18;;
77278;SDS011;66332;50.436;15.378;2023-03-01T17:44:50;25.33;;;12.43;;
77278;SDS011;66332;50.436;15.378;2023-03-01T17:49:31;30.58;;;12.90;;
77278;SDS011;66332;50.436;15.378;2023-03-01T17:54:12;28.75;;;12.40;;
77278;SDS011;66332;50.436;15.378;2023-03-01T17:58:53;30.15;;;13.93;;
77278;SDS011;66332;50.436;15.378;2023-03-01T18:03:34;30.33;;;14.13;;
77278;SDS011;66332;50.436;15.378;2023-03-01T18:08:15;31.55;;;14.10;;
77278;SDS011;66332;50.436;15.378;2023-03-01T18:12:56;34.38;;;14.07;;
77278;SDS011;66332;50.436;15.378;2023-03-01T18:17:37;39.30;;;16.15;;
77278;SDS011;66332;50.436;15.378;2023-03-01T18:22:18;32.75;;;15.07;;
77278;SDS011;66332;50.436;15.378;2023-03-01T18:26:59;32.33;;;15.32;;
77278;SDS011;66332;50.436;15.378;2023-03-01T18:31:40;31.45;;;14.25;;
77278;SDS011;66332;50.436;15.378;2023-03-01T18:36:22;33.08;;;13.27;;
77278;SDS011;66332;50.436;15.378;2023-03-01T18:41:04;28.80;;;13.48;;
77278;SDS011;66332;50.436;15.378;2023-03-01T18:45:45;33.63;;;15.10;;
77278;SDS011;66332;50.436;15.378;2023-03-01T18:50:26;29.42;;;13.50;;
77278;SDS011;66332;50.436;15.378;2023-03-01T18:55:07;34.72;;;13.93;;
77278;SDS011;66332;50.436;15.378;2023-03-01T18:59:48;30.48;;;13.13;;
77278;SDS011;66332;50.436;15.378;2023-03-01T19:04:29;27.50;;;11.68;;
77278;SDS011;66332;50.436;15.378;2023-03-01T19:09:11;26.00;;;12.43;;
77278;SDS011;66332;50.436;15.378;2023-03-01T19:13:52;27.48;;;11.35;;
77278;SDS011;66332;50.436;15.378;2023-03-01T19:18:35;28.23;;;12.68;;
77278;SDS011;66332;50.436;15.378;2023-03-01T19:23:16;26.75;;;12.18;;
77278;SDS011;66332;50.436;15.378;2023-03-01T19:28:03;28.17;;;11.63;;
77278;SDS011;66332;50.436;15.378;2023-03-01T19:32:45;29.48;;;12.90;;
77278;SDS011;66332;50.436;15.378;2023-03-01T19:37:26;25.25;;;11.45;;
77278;SDS011;66332;50.436;15.378;2023-03-01T19:47:59;19.02;;;9.95;;
77278;SDS011;66332;50.436;15.378;2023-03-01T19:52:44;21.75;;;9.70;;
77278;SDS011;66332;50.436;15.378;2023-03-01T19:57:47;21.83;;;9.70;;
77278;SDS011;66332;50.436;15.378;2023-03-01T20:02:41;18.95;;;9.70;;
77278;SDS011;66332;50.436;15.378;2023-03-01T20:07:25;21.38;;;10.48;;
77278;SDS011;66332;50.436;15.378;2023-03-01T20:12:07;21.38;;;9.10;;
77278;SDS011;66332;50.436;15.378;2023-03-01T20:16:48;22.35;;;9.82;;
77278;SDS011;66332;50.436;15.378;2023-03-01T20:21:30;19.45;;;10.27;;
77278;SDS011;66332;50.436;15.378;2023-03-01T20:26:25;23.63;;;10.77;;
77278;SDS011;66332;50.436;15.378;2023-03-01T20:31:25;24.90;;;11.32;;
77278;SDS011;66332;50.436;15.378;2023-03-01T20:36:09;21.45;;;10.15;;
77278;SDS011;66332;50.436;15.378;2023-03-01T20:41:01;22.85;;;9.18;;
77278;SDS011;66332;50.436;15.378;2023-03-01T20:45:53;16.70;;;7.85;;
77278;SDS011;66332;50.436;15.378;2023-03-01T20:50:41;19.30;;;7.60;;
77278;SDS011;66332;50.436;15.378;2023-03-01T20:55:22;15.98;;;6.65;;
77278;SDS011;66332;50.436;15.378;2023-03-01T21:00:03;16.95;;;6.10;;
77278;SDS011;66332;50.436;15.378;2023-03-01T21:04:45;16.10;;;7.65;;
77278;SDS011;66332;50.436;15.378;2023-03-01T21:09:26;18.55;;;8.35;;
77278;SDS011;66332;50.436;15.378;2023-03-01T21:14:07;24.98;;;10.20;;
77278;SDS011;66332;50.436;15.378;2023-03-01T21:18:49;20.08;;;8.32;;
77278;SDS011;66332;50.436;15.378;2023-03-01T21:23:30;18.48;;;8.00;;
77278;SDS011;66332;50.436;15.378;2023-03-01T21:28:12;17.52;;;7.78;;
77278;SDS011;66332;50.436;15.378;2023-03-01T21:32:54;20.00;;;8.98;;
77278;SDS011;66332;50.436;15.378;2023-03-01T21:37:35;19.60;;;8.30;;
77278;SDS011;66332;50.436;15.378;2023-03-01T21:42:15;23.40;;;9.77;;
77278;SDS011;66332;50.436;15.378;2023-03-01T21:46:57;20.83;;;9.35;;
77278;SDS011;66332;50.436;15.378;2023-03-01T21:51:38;23.25;;;9.63;;
77278;SDS011;66332;50.436;15.378;2023-03-01T21:56:21;21.25;;;9.93;;
77278;SDS011;66332;50.436;15.378;2023-03-01T22:01:08;24.42;;;10.82;;
77278;SDS011;66332;50.436;15.378;2023-03-01T22:06:00;23.38;;;10.68;;
77278;SDS011;66332;50.436;15.378;2023-03-01T22:10:45;21.80;;;10.75;;
77278;SDS011;66332;50.436;15.378;2023-03-01T22:15:26;22.38;;;9.80;;
77278;SDS011;66332;50.436;15.378;2023-03-01T22:20:07;21.45;;;10.50;;
77278;SDS011;66332;50.436;15.378;2023-03-01T22:24:49;24.63;;;10.57;;
77278;SDS011;66332;50.436;15.378;2023-03-01T22:29:30;20.27;;;9.35;;
77278;SDS011;66332;50.436;15.378;2023-03-01T22:34:11;23.15;;;9.63;;
77278;SDS011;66332;50.436;15.378;2023-03-01T22:38:54;20.10;;;8.52;;
77278;SDS011;66332;50.436;15.378;2023-03-01T22:43:39;17.60;;;7.68;;
77278;SDS011;66332;50.436;15.378;2023-03-01T22:48:20;18.92;;;8.23;;
77278;SDS011;66332;50.436;15.378;2023-03-01T22:53:01;17.58;;;7.78;;
